sensor_id;sensor_type;location;lat;lon;timestamp;temperature;humidity
6986;DHT22;3533;51.246;6.850;2023-04-29T00:00:21;18.30;46.50
6986;DHT22;3533;51.246;6.850;2023-04-29T00:02:47;18.30;46.50
6986;DHT22;3533;51.246;6.850;2023-04-29T00:05:13;18.20;46.40
6986;DHT22;3533;51.246;6.850;2023-04-29T00:07:38;18.30;46.60
6986;DHT22;3533;51.246;6.850;2023-04-29T00:10:04;18.30;46.50
6986;DHT22;3533;51.246;6.850;2023-04-29T00:12:30;18.30;46.60
6986;DHT22;3533;51.246;6.850;2023-04-29T00:14:58;18.30;46.50
6986;DHT22;3533;51.246;6.850;2023-04-29T00:17:23;18.30;46.50
6986;DHT22;3533;51.246;6.850;2023-04-29T00:19:49;18.30;46.60
6986;DHT22;3533;51.246;6.850;2023-04-29T00:22:15;18.30;46.50
6986;DHT22;3533;51.246;6.850;2023-04-29T00:24:40;18.30;46.60
6986;DHT22;3533;51.246;6.850;2023-04-29T00:27:06;18.30;46.60
6986;DHT22;3533;51.246;6.850;2023-04-29T00:29:31;18.20;46.50
6986;DHT22;3533;51.246;6.850;2023-04-29T00:31:57;18.20;46.50
6986;DHT22;3533;51.246;6.850;2023-04-29T00:34:23;18.30;46.60
6986;DHT22;3533;51.246;6.850;2023-04-29T00:36:48;18.30;46.60
6986;DHT22;3533;51.246;6.850;2023-04-29T00:39:14;18.30;46.60
6986;DHT22;3533;51.246;6.850;2023-04-29T00:41:40;18.20;46.50
6986;DHT22;3533;51.246;6.850;2023-04-29T00:44:05;18.30;46.60
6986;DHT22;3533;51.246;6.850;2023-04-29T00:46:32;18.30;46.60
6986;DHT22;3533;51.246;6.850;2023-04-29T00:48:58;18.30;46.60
6986;DHT22;3533;51.246;6.850;2023-04-29T00:51:25;18.30;46.60
6986;DHT22;3533;51.246;6.850;2023-04-29T00:53:51;18.30;46.60
6986;DHT22;3533;51.246;6.850;2023-04-29T00:56:17;18.30;46.60
6986;DHT22;3533;51.246;6.850;2023-04-29T00:58:45;18.30;46.70
6986;DHT22;3533;51.246;6.850;2023-04-29T01:01:17;18.30;46.60
6986;DHT22;3533;51.246;6.850;2023-04-29T01:03:43;18.30;46.60
6986;DHT22;3533;51.246;6.850;2023-04-29T01:11:46;18.20;46.50
6986;DHT22;3533;51.246;6.850;2023-04-29T01:14:13;18.30;46.60
6986;DHT22;3533;51.246;6.850;2023-04-29T01:16:50;18.20;46.50
6986;DHT22;3533;51.246;6.850;2023-04-29T01:19:38;18.30;46.60
6986;DHT22;3533;51.246;6.850;2023-04-29T01:22:05;18.20;46.50
6986;DHT22;3533;51.246;6.850;2023-04-29T01:24:30;18.20;46.60
6986;DHT22;3533;51.246;6.850;2023-04-29T01:27:01;18.20;46.60
6986;DHT22;3533;51.246;6.850;2023-04-29T01:29:39;18.20;46.60
6986;DHT22;3533;51.246;6.850;2023-04-29T01:32:17;18.20;46.60
6986;DHT22;3533;51.246;6.850;2023-04-29T01:35:14;18.20;46.50
6986;DHT22;3533;51.246;6.850;2023-04-29T01:38:01;18.20;46.60
6986;DHT22;3533;51.246;6.850;2023-04-29T01:40:58;18.20;46.60
6986;DHT22;3533;51.246;6.850;2023-04-29T01:43:24;18.20;46.60
6986;DHT22;3533;51.246;6.850;2023-04-29T01:45:54;18.20;46.60
6986;DHT22;3533;51.246;6.850;2023-04-29T01:48:20;18.20;46.60
6986;DHT22;3533;51.246;6.850;2023-04-29T01:50:46;18.20;46.60
6986;DHT22;3533;51.246;6.850;2023-04-29T01:53:12;18.20;46.60
6986;DHT22;3533;51.246;6.850;2023-04-29T01:55:38;18.20;46.60
6986;DHT22;3533;51.246;6.850;2023-04-29T01:58:03;18.20;47.40
6986;DHT22;3533;51.246;6.850;2023-04-29T02:00:29;18.20;46.60
6986;DHT22;3533;51.246;6.850;2023-04-29T02:02:54;18.20;46.60
6986;DHT22;3533;51.246;6.850;2023-04-29T02:05:20;18.20;46.60
6986;DHT22;3533;51.246;6.850;2023-04-29T02:07:45;18.20;46.70
6986;DHT22;3533;51.246;6.850;2023-04-29T02:10:12;18.20;46.70
6986;DHT22;3533;51.246;6.850;2023-04-29T02:12:38;18.20;46.70
6986;DHT22;3533;51.246;6.850;2023-04-29T02:15:03;18.20;46.60
6986;DHT22;3533;51.246;6.850;2023-04-29T02:17:29;18.20;46.60
6986;DHT22;3533;51.246;6.850;2023-04-29T02:19:55;18.20;46.60
6986;DHT22;3533;51.246;6.850;2023-04-29T02:22:20;18.20;46.90
6986;DHT22;3533;51.246;6.850;2023-04-29T02:24:46;18.20;46.70
6986;DHT22;3533;51.246;6.850;2023-04-29T02:27:12;18.20;46.60
6986;DHT22;3533;51.246;6.850;2023-04-29T02:29:37;18.20;46.60
6986;DHT22;3533;51.246;6.850;2023-04-29T02:32:03;18.20;46.60
6986;DHT22;3533;51.246;6.850;2023-04-29T02:34:29;18.20;46.70
6986;DHT22;3533;51.246;6.850;2023-04-29T02:36:56;18.20;46.70
6986;DHT22;3533;51.246;6.850;2023-04-29T02:39:22;18.20;46.70
6986;DHT22;3533;51.246;6.850;2023-04-29T02:41:47;18.20;46.70
6986;DHT22;3533;51.246;6.850;2023-04-29T02:44:13;18.20;46.60
6986;DHT22;3533;51.246;6.850;2023-04-29T02:46:39;18.20;46.60
6986;DHT22;3533;51.246;6.850;2023-04-29T02:49:09;18.20;46.70
6986;DHT22;3533;51.246;6.850;2023-04-29T02:51:35;18.20;46.70
6986;DHT22;3533;51.246;6.850;2023-04-29T02:54:01;18.20;46.60
6986;DHT22;3533;51.246;6.850;2023-04-29T02:56:26;18.20;46.70
6986;DHT22;3533;51.246;6.850;2023-04-29T02:58:52;18.20;46.70
6986;DHT22;3533;51.246;6.850;2023-04-29T03:01:17;18.20;46.70
6986;DHT22;3533;51.246;6.850;2023-04-29T03:03:43;18.20;46.70
6986;DHT22;3533;51.246;6.850;2023-04-29T03:06:09;18.20;46.70
6986;DHT22;3533;51.246;6.850;2023-04-29T03:08:34;18.20;46.70
6986;DHT22;3533;51.246;6.850;2023-04-29T03:11:00;18.20;46.70
6986;DHT22;3533;51.246;6.850;2023-04-29T03:13:25;18.20;46.60
6986;DHT22;3533;51.246;6.850;2023-04-29T03:15:51;18.20;46.70
6986;DHT22;3533;51.246;6.850;2023-04-29T03:18:16;18.20;46.70
6986;DHT22;3533;51.246;6.850;2023-04-29T03:20:42;18.20;46.70
6986;DHT22;3533;51.246;6.850;2023-04-29T03:23:07;18.20;46.70
6986;DHT22;3533;51.246;6.850;2023-04-29T03:25:33;18.20;46.70
6986;DHT22;3533;51.246;6.850;2023-04-29T03:27:59;18.20;46.60
6986;DHT22;3533;51.246;6.850;2023-04-29T03:30:24;18.20;46.60
6986;DHT22;3533;51.246;6.850;2023-04-29T03:32:49;18.20;46.70
6986;DHT22;3533;51.246;6.850;2023-04-29T03:35:15;18.20;46.70
6986;DHT22;3533;51.246;6.850;2023-04-29T03:37:41;18.20;46.70
6986;DHT22;3533;51.246;6.850;2023-04-29T03:40:09;18.20;46.70
6986;DHT22;3533;51.246;6.850;2023-04-29T03:42:35;18.20;46.70
6986;DHT22;3533;51.246;6.850;2023-04-29T03:45:00;18.20;46.70
6986;DHT22;3533;51.246;6.850;2023-04-29T03:47:26;18.20;46.70
6986;DHT22;3533;51.246;6.850;2023-04-29T03:49:51;18.20;46.70
6986;DHT22;3533;51.246;6.850;2023-04-29T03:52:17;18.20;46.70
6986;DHT22;3533;51.246;6.850;2023-04-29T03:54:43;18.20;46.70
6986;DHT22;3533;51.246;6.850;2023-04-29T03:57:09;18.20;46.70
6986;DHT22;3533;51.246;6.850;2023-04-29T03:59:34;18.20;46.70
6986;DHT22;3533;51.246;6.850;2023-04-29T04:02:00;18.20;46.70
6986;DHT22;3533;51.246;6.850;2023-04-29T04:04:25;18.20;46.70
6986;DHT22;3533;51.246;6.850;2023-04-29T04:06:51;18.20;46.70
6986;DHT22;3533;51.246;6.850;2023-04-29T04:09:19;18.20;46.70
6986;DHT22;3533;51.246;6.850;2023-04-29T04:11:45;18.20;46.70
6986;DHT22;3533;51.246;6.850;2023-04-29T04:14:11;18.20;46.70
6986;DHT22;3533;51.246;6.850;2023-04-29T04:16:37;18.20;46.80
6986;DHT22;3533;51.246;6.850;2023-04-29T04:19:02;18.20;46.80
6986;DHT22;3533;51.246;6.850;2023-04-29T04:21:28;18.20;46.80
6986;DHT22;3533;51.246;6.850;2023-04-29T04:23:54;18.20;46.70
6986;DHT22;3533;51.246;6.850;2023-04-29T04:26:20;18.20;46.70
6986;DHT22;3533;51.246;6.850;2023-04-29T04:28:46;18.20;46.70
6986;DHT22;3533;51.246;6.850;2023-04-29T04:31:11;18.20;46.70
6986;DHT22;3533;51.246;6.850;2023-04-29T04:33:40;18.20;46.80
6986;DHT22;3533;51.246;6.850;2023-04-29T04:36:06;18.20;46.70
6986;DHT22;3533;51.246;6.850;2023-04-29T04:38:32;18.20;46.70
6986;DHT22;3533;51.246;6.850;2023-04-29T04:40:58;18.20;46.80
6986;DHT22;3533;51.246;6.850;2023-04-29T04:43:23;18.20;46.70
6986;DHT22;3533;51.246;6.850;2023-04-29T04:45:49;18.20;46.70
6986;DHT22;3533;51.246;6.850;2023-04-29T04:48:15;18.20;46.70
6986;DHT22;3533;51.246;6.850;2023-04-29T04:50:40;18.20;46.70
6986;DHT22;3533;51.246;6.850;2023-04-29T04:53:06;18.20;46.70
6986;DHT22;3533;51.246;6.850;2023-04-29T04:55:31;18.20;46.80
6986;DHT22;3533;51.246;6.850;2023-04-29T04:58:00;18.20;46.70
6986;DHT22;3533;51.246;6.850;2023-04-29T05:00:26;18.20;46.70
6986;DHT22;3533;51.246;6.850;2023-04-29T05:02:51;18.20;47.50
6986;DHT22;3533;51.246;6.850;2023-04-29T05:05:17;18.20;46.70
6986;DHT22;3533;51.246;6.850;2023-04-29T05:07:43;18.20;46.70
6986;DHT22;3533;51.246;6.850;2023-04-29T05:10:08;18.20;46.70
6986;DHT22;3533;51.246;6.850;2023-04-29T05:12:34;18.20;46.70
6986;DHT22;3533;51.246;6.850;2023-04-29T05:15:01;18.20;46.70
6986;DHT22;3533;51.246;6.850;2023-04-29T05:17:27;18.30;46.80
6986;DHT22;3533;51.246;6.850;2023-04-29T05:19:53;18.30;46.80
6986;DHT22;3533;51.246;6.850;2023-04-29T05:22:18;18.20;46.70
6986;DHT22;3533;51.246;6.850;2023-04-29T05:24:44;18.30;46.80
6986;DHT22;3533;51.246;6.850;2023-04-29T05:27:09;18.30;46.80
6986;DHT22;3533;51.246;6.850;2023-04-29T05:29:35;18.30;46.80
6986;DHT22;3533;51.246;6.850;2023-04-29T05:32:00;18.30;46.80
6986;DHT22;3533;51.246;6.850;2023-04-29T05:34:26;18.30;46.80
6986;DHT22;3533;51.246;6.850;2023-04-29T05:36:52;18.30;46.80
6986;DHT22;3533;51.246;6.850;2023-04-29T05:39:17;18.30;46.80
6986;DHT22;3533;51.246;6.850;2023-04-29T05:41:43;18.30;46.80
6986;DHT22;3533;51.246;6.850;2023-04-29T05:44:08;18.30;46.80
6986;DHT22;3533;51.246;6.850;2023-04-29T05:46:34;18.30;46.80
6986;DHT22;3533;51.246;6.850;2023-04-29T05:49:00;18.30;46.80
6986;DHT22;3533;51.246;6.850;2023-04-29T05:51:25;18.30;46.80
6986;DHT22;3533;51.246;6.850;2023-04-29T05:53:52;18.30;47.50
6986;DHT22;3533;51.246;6.850;2023-04-29T05:56:18;18.30;46.80
6986;DHT22;3533;51.246;6.850;2023-04-29T05:58:44;18.30;46.70
6986;DHT22;3533;51.246;6.850;2023-04-29T06:01:10;18.30;46.80
6986;DHT22;3533;51.246;6.850;2023-04-29T06:03:35;18.30;46.70
6986;DHT22;3533;51.246;6.850;2023-04-29T06:06:01;18.30;46.80
6986;DHT22;3533;51.246;6.850;2023-04-29T06:08:27;18.30;46.80
6986;DHT22;3533;51.246;6.850;2023-04-29T06:10:53;18.30;46.80
6986;DHT22;3533;51.246;6.850;2023-04-29T06:13:18;18.30;46.80
6986;DHT22;3533;51.246;6.850;2023-04-29T06:15:44;18.30;46.80
6986;DHT22;3533;51.246;6.850;2023-04-29T06:18:09;18.30;46.80
6986;DHT22;3533;51.246;6.850;2023-04-29T06:20:35;18.30;46.80
6986;DHT22;3533;51.246;6.850;2023-04-29T06:23:00;18.30;46.80
6986;DHT22;3533;51.246;6.850;2023-04-29T06:25:26;18.30;46.90
6986;DHT22;3533;51.246;6.850;2023-04-29T06:27:51;18.30;46.80
6986;DHT22;3533;51.246;6.850;2023-04-29T06:30:17;18.30;46.80
6986;DHT22;3533;51.246;6.850;2023-04-29T06:32:43;18.30;46.80
6986;DHT22;3533;51.246;6.850;2023-04-29T06:35:09;18.30;46.80
6986;DHT22;3533;51.246;6.850;2023-04-29T06:37:34;18.30;46.70
6986;DHT22;3533;51.246;6.850;2023-04-29T06:40:00;18.40;46.80
6986;DHT22;3533;51.246;6.850;2023-04-29T06:42:25;18.40;46.70
6986;DHT22;3533;51.246;6.850;2023-04-29T06:44:51;18.40;46.70
6986;DHT22;3533;51.246;6.850;2023-04-29T06:47:17;18.40;46.70
6986;DHT22;3533;51.246;6.850;2023-04-29T06:49:42;18.40;46.60
6986;DHT22;3533;51.246;6.850;2023-04-29T06:52:08;18.40;46.70
6986;DHT22;3533;51.246;6.850;2023-04-29T06:54:34;18.40;46.60
6986;DHT22;3533;51.246;6.850;2023-04-29T06:56:59;18.40;46.70
6986;DHT22;3533;51.246;6.850;2023-04-29T06:59:25;18.40;46.70
6986;DHT22;3533;51.246;6.850;2023-04-29T07:01:51;18.40;46.70
6986;DHT22;3533;51.246;6.850;2023-04-29T07:04:16;18.40;46.60
6986;DHT22;3533;51.246;6.850;2023-04-29T07:06:42;18.40;46.60
6986;DHT22;3533;51.246;6.850;2023-04-29T07:09:11;18.40;46.60
6986;DHT22;3533;51.246;6.850;2023-04-29T07:11:38;18.40;46.60
6986;DHT22;3533;51.246;6.850;2023-04-29T07:14:04;18.40;46.70
6986;DHT22;3533;51.246;6.850;2023-04-29T07:16:29;18.40;46.70
6986;DHT22;3533;51.246;6.850;2023-04-29T07:18:55;18.40;46.70
6986;DHT22;3533;51.246;6.850;2023-04-29T07:21:20;18.40;46.70
6986;DHT22;3533;51.246;6.850;2023-04-29T07:23:46;18.40;46.70
6986;DHT22;3533;51.246;6.850;2023-04-29T07:26:13;18.40;46.70
6986;DHT22;3533;51.246;6.850;2023-04-29T07:28:40;18.40;46.70
6986;DHT22;3533;51.246;6.850;2023-04-29T07:31:06;18.40;46.70
6986;DHT22;3533;51.246;6.850;2023-04-29T07:33:32;18.40;46.80
6986;DHT22;3533;51.246;6.850;2023-04-29T07:35:58;18.40;46.70
6986;DHT22;3533;51.246;6.850;2023-04-29T07:38:23;18.40;46.70
6986;DHT22;3533;51.246;6.850;2023-04-29T07:40:49;18.40;46.70
6986;DHT22;3533;51.246;6.850;2023-04-29T07:43:14;18.40;46.70
6986;DHT22;3533;51.246;6.850;2023-04-29T07:45:40;18.40;46.80
6986;DHT22;3533;51.246;6.850;2023-04-29T07:48:05;18.40;46.80
6986;DHT22;3533;51.246;6.850;2023-04-29T07:50:34;18.40;46.80
6986;DHT22;3533;51.246;6.850;2023-04-29T07:53:01;18.40;46.80
6986;DHT22;3533;51.246;6.850;2023-04-29T07:55:27;18.40;46.80
6986;DHT22;3533;51.246;6.850;2023-04-29T07:57:54;18.30;46.70
6986;DHT22;3533;51.246;6.850;2023-04-29T08:00:21;18.30;46.70
6986;DHT22;3533;51.246;6.850;2023-04-29T08:02:51;18.40;46.80
6986;DHT22;3533;51.246;6.850;2023-04-29T08:05:17;18.40;46.80
6986;DHT22;3533;51.246;6.850;2023-04-29T08:07:43;18.30;46.70
6986;DHT22;3533;51.246;6.850;2023-04-29T08:10:09;18.30;47.00
6986;DHT22;3533;51.246;6.850;2023-04-29T08:12:35;18.30;46.80
6986;DHT22;3533;51.246;6.850;2023-04-29T08:15:00;18.30;46.90
6986;DHT22;3533;51.246;6.850;2023-04-29T08:17:26;18.30;46.80
6986;DHT22;3533;51.246;6.850;2023-04-29T08:19:51;18.30;46.80
6986;DHT22;3533;51.246;6.850;2023-04-29T08:22:17;18.30;46.80
6986;DHT22;3533;51.246;6.850;2023-04-29T08:24:42;18.30;46.80
6986;DHT22;3533;51.246;6.850;2023-04-29T08:27:09;18.30;46.80
6986;DHT22;3533;51.246;6.850;2023-04-29T08:29:35;18.30;46.90
6986;DHT22;3533;51.246;6.850;2023-04-29T08:32:01;18.30;46.80
6986;DHT22;3533;51.246;6.850;2023-04-29T08:34:27;18.30;46.90
6986;DHT22;3533;51.246;6.850;2023-04-29T08:36:52;18.30;46.90
6986;DHT22;3533;51.246;6.850;2023-04-29T08:39:18;18.30;46.90
6986;DHT22;3533;51.246;6.850;2023-04-29T08:41:43;18.30;46.90
6986;DHT22;3533;51.246;6.850;2023-04-29T08:44:14;18.30;46.90
6986;DHT22;3533;51.246;6.850;2023-04-29T08:46:45;18.30;46.90
6986;DHT22;3533;51.246;6.850;2023-04-29T08:49:11;18.30;46.80
6986;DHT22;3533;51.246;6.850;2023-04-29T08:51:37;18.30;47.00
6986;DHT22;3533;51.246;6.850;2023-04-29T08:54:03;18.30;46.90
6986;DHT22;3533;51.246;6.850;2023-04-29T08:56:30;18.30;46.90
6986;DHT22;3533;51.246;6.850;2023-04-29T08:59:00;18.30;46.90
6986;DHT22;3533;51.246;6.850;2023-04-29T09:01:27;18.30;46.90
6986;DHT22;3533;51.246;6.850;2023-04-29T09:04:11;18.30;46.90
6986;DHT22;3533;51.246;6.850;2023-04-29T09:06:38;18.30;46.90
6986;DHT22;3533;51.246;6.850;2023-04-29T09:09:04;18.30;46.90
6986;DHT22;3533;51.246;6.850;2023-04-29T09:11:31;18.30;46.90
6986;DHT22;3533;51.246;6.850;2023-04-29T09:14:01;18.30;47.00
6986;DHT22;3533;51.246;6.850;2023-04-29T09:16:30;18.30;46.90
6986;DHT22;3533;51.246;6.850;2023-04-29T09:18:55;18.30;47.00
6986;DHT22;3533;51.246;6.850;2023-04-29T09:23:51;18.30;46.80
6986;DHT22;3533;51.246;6.850;2023-04-29T09:26:17;18.30;46.90
6986;DHT22;3533;51.246;6.850;2023-04-29T09:28:42;18.30;46.90
6986;DHT22;3533;51.246;6.850;2023-04-29T09:31:10;18.30;47.00
6986;DHT22;3533;51.246;6.850;2023-04-29T09:33:50;18.30;46.90
6986;DHT22;3533;51.246;6.850;2023-04-29T09:36:45;18.30;46.90
6986;DHT22;3533;51.246;6.850;2023-04-29T09:39:13;18.30;46.80
6986;DHT22;3533;51.246;6.850;2023-04-29T09:41:40;18.30;46.90
6986;DHT22;3533;51.246;6.850;2023-04-29T09:44:07;18.30;46.90
6986;DHT22;3533;51.246;6.850;2023-04-29T09:46:34;18.30;46.90
6986;DHT22;3533;51.246;6.850;2023-04-29T09:49:01;18.30;46.90
6986;DHT22;3533;51.246;6.850;2023-04-29T09:51:29;18.30;46.80
6986;DHT22;3533;51.246;6.850;2023-04-29T09:53:59;18.30;46.80
6986;DHT22;3533;51.246;6.850;2023-04-29T09:56:26;18.30;46.90
6986;DHT22;3533;51.246;6.850;2023-04-29T09:58:55;18.30;46.80
6986;DHT22;3533;51.246;6.850;2023-04-29T10:01:21;18.30;46.90
6986;DHT22;3533;51.246;6.850;2023-04-29T10:03:49;18.30;46.90
6986;DHT22;3533;51.246;6.850;2023-04-29T10:06:16;18.30;46.90
6986;DHT22;3533;51.246;6.850;2023-04-29T10:08:43;18.30;46.90
6986;DHT22;3533;51.246;6.850;2023-04-29T10:11:10;18.30;46.90
6986;DHT22;3533;51.246;6.850;2023-04-29T10:13:37;18.30;46.90
6986;DHT22;3533;51.246;6.850;2023-04-29T10:16:27;18.30;46.90
6986;DHT22;3533;51.246;6.850;2023-04-29T10:18:55;18.30;47.60
6986;DHT22;3533;51.246;6.850;2023-04-29T10:21:28;18.30;46.90
6986;DHT22;3533;51.246;6.850;2023-04-29T10:23:57;18.30;46.80
6986;DHT22;3533;51.246;6.850;2023-04-29T10:26:28;18.30;46.90
6986;DHT22;3533;51.246;6.850;2023-04-29T10:28:58;18.30;46.90
6986;DHT22;3533;51.246;6.850;2023-04-29T10:31:27;18.30;46.90
6986;DHT22;3533;51.246;6.850;2023-04-29T10:33:57;18.30;46.80
6986;DHT22;3533;51.246;6.850;2023-04-29T10:36:24;18.30;46.80
6986;DHT22;3533;51.246;6.850;2023-04-29T10:38:56;18.30;46.80
6986;DHT22;3533;51.246;6.850;2023-04-29T10:41:28;18.30;46.80
6986;DHT22;3533;51.246;6.850;2023-04-29T10:43:58;18.30;46.80
6986;DHT22;3533;51.246;6.850;2023-04-29T10:46:25;18.30;46.90
6986;DHT22;3533;51.246;6.850;2023-04-29T10:48:58;18.30;46.80
6986;DHT22;3533;51.246;6.850;2023-04-29T10:51:32;18.30;46.80
6986;DHT22;3533;51.246;6.850;2023-04-29T12:15:16;18.30;47.00
6986;DHT22;3533;51.246;6.850;2023-04-29T12:17:42;18.30;47.00
6986;DHT22;3533;51.246;6.850;2023-04-29T12:20:08;18.30;47.00
6986;DHT22;3533;51.246;6.850;2023-04-29T12:22:35;18.30;47.00
6986;DHT22;3533;51.246;6.850;2023-04-29T12:25:04;18.30;47.80
6986;DHT22;3533;51.246;6.850;2023-04-29T12:27:30;18.30;47.00
6986;DHT22;3533;51.246;6.850;2023-04-29T12:29:56;18.30;47.00
6986;DHT22;3533;51.246;6.850;2023-04-29T12:32:23;18.30;46.90
6986;DHT22;3533;51.246;6.850;2023-04-29T12:34:50;18.30;47.00
6986;DHT22;3533;51.246;6.850;2023-04-29T12:37:21;18.30;47.00
6986;DHT22;3533;51.246;6.850;2023-04-29T12:39:49;18.30;46.90
6986;DHT22;3533;51.246;6.850;2023-04-29T12:42:15;18.30;46.90
6986;DHT22;3533;51.246;6.850;2023-04-29T12:44:44;18.30;47.00
6986;DHT22;3533;51.246;6.850;2023-04-29T12:47:12;18.30;46.90
6986;DHT22;3533;51.246;6.850;2023-04-29T12:49:42;18.30;46.90
6986;DHT22;3533;51.246;6.850;2023-04-29T12:52:08;18.30;46.90
6986;DHT22;3533;51.246;6.850;2023-04-29T12:54:35;18.30;46.90
6986;DHT22;3533;51.246;6.850;2023-04-29T12:57:02;18.40;47.00
6986;DHT22;3533;51.246;6.850;2023-04-29T12:59:27;18.30;46.90
6986;DHT22;3533;51.246;6.850;2023-04-29T13:01:53;18.40;47.00
6986;DHT22;3533;51.246;6.850;2023-04-29T13:04:18;18.40;47.00
6986;DHT22;3533;51.246;6.850;2023-04-29T13:06:44;18.40;47.00
6986;DHT22;3533;51.246;6.850;2023-04-29T13:09:10;18.40;47.00
6986;DHT22;3533;51.246;6.850;2023-04-29T13:11:37;18.40;47.00
6986;DHT22;3533;51.246;6.850;2023-04-29T13:14:03;18.40;47.00
6986;DHT22;3533;51.246;6.850;2023-04-29T13:16:33;18.40;47.00
6986;DHT22;3533;51.246;6.850;2023-04-29T13:19:00;18.40;47.00
6986;DHT22;3533;51.246;6.850;2023-04-29T13:21:26;18.40;47.00
6986;DHT22;3533;51.246;6.850;2023-04-29T13:23:55;18.40;47.00
6986;DHT22;3533;51.246;6.850;2023-04-29T13:26:20;18.40;47.00
6986;DHT22;3533;51.246;6.850;2023-04-29T13:28:48;18.40;47.00
6986;DHT22;3533;51.246;6.850;2023-04-29T13:31:13;18.40;46.90
6986;DHT22;3533;51.246;6.850;2023-04-29T13:33:39;18.40;46.90
6986;DHT22;3533;51.246;6.850;2023-04-29T13:36:04;18.40;47.00
6986;DHT22;3533;51.246;6.850;2023-04-29T13:38:30;18.40;47.00
6986;DHT22;3533;51.246;6.850;2023-04-29T13:40:56;18.40;47.00
6986;DHT22;3533;51.246;6.850;2023-04-29T13:43:21;18.40;47.00
6986;DHT22;3533;51.246;6.850;2023-04-29T13:45:47;18.40;47.00
6986;DHT22;3533;51.246;6.850;2023-04-29T13:48:13;18.40;46.90
6986;DHT22;3533;51.246;6.850;2023-04-29T13:50:38;18.40;47.00
6986;DHT22;3533;51.246;6.850;2023-04-29T13:53:05;18.40;47.00
6986;DHT22;3533;51.246;6.850;2023-04-29T13:55:32;18.40;47.00
6986;DHT22;3533;51.246;6.850;2023-04-29T13:57:59;18.40;47.00
6986;DHT22;3533;51.246;6.850;2023-04-29T14:00:25;18.40;47.00
6986;DHT22;3533;51.246;6.850;2023-04-29T14:02:51;18.40;47.00
6986;DHT22;3533;51.246;6.850;2023-04-29T14:05:16;18.40;47.00
6986;DHT22;3533;51.246;6.850;2023-04-29T14:07:42;18.40;47.00
6986;DHT22;3533;51.246;6.850;2023-04-29T14:10:07;18.40;46.90
6986;DHT22;3533;51.246;6.850;2023-04-29T14:12:33;18.40;47.00
6986;DHT22;3533;51.246;6.850;2023-04-29T14:14:58;18.40;47.00
6986;DHT22;3533;51.246;6.850;2023-04-29T14:17:24;18.40;47.00
6986;DHT22;3533;51.246;6.850;2023-04-29T14:19:49;18.40;47.00
6986;DHT22;3533;51.246;6.850;2023-04-29T14:22:15;18.40;47.00
6986;DHT22;3533;51.246;6.850;2023-04-29T14:24:41;18.40;47.00
6986;DHT22;3533;51.246;6.850;2023-04-29T14:27:06;18.40;47.00
6986;DHT22;3533;51.246;6.850;2023-04-29T14:29:32;18.40;47.00
6986;DHT22;3533;51.246;6.850;2023-04-29T14:31:57;18.40;47.00
6986;DHT22;3533;51.246;6.850;2023-04-29T14:34:23;18.40;47.00
6986;DHT22;3533;51.246;6.850;2023-04-29T14:36:49;18.40;47.00
6986;DHT22;3533;51.246;6.850;2023-04-29T14:39:14;18.40;46.90
6986;DHT22;3533;51.246;6.850;2023-04-29T14:41:40;18.40;47.00
6986;DHT22;3533;51.246;6.850;2023-04-29T14:44:05;18.40;47.00
6986;DHT22;3533;51.246;6.850;2023-04-29T14:46:32;18.40;46.90
6986;DHT22;3533;51.246;6.850;2023-04-29T14:48:58;18.40;47.00
6986;DHT22;3533;51.246;6.850;2023-04-29T14:51:23;18.40;46.90
6986;DHT22;3533;51.246;6.850;2023-04-29T14:53:50;18.40;47.00
6986;DHT22;3533;51.246;6.850;2023-04-29T14:56:16;18.40;47.00
6986;DHT22;3533;51.246;6.850;2023-04-29T14:58:42;18.40;46.90
6986;DHT22;3533;51.246;6.850;2023-04-29T15:01:08;18.40;46.90
6986;DHT22;3533;51.246;6.850;2023-04-29T15:03:33;18.40;46.90
6986;DHT22;3533;51.246;6.850;2023-04-29T15:06:02;18.40;47.00
6986;DHT22;3533;51.246;6.850;2023-04-29T15:08:29;18.40;46.90
6986;DHT22;3533;51.246;6.850;2023-04-29T15:10:54;18.40;46.90
6986;DHT22;3533;51.246;6.850;2023-04-29T15:13:20;18.40;46.90
6986;DHT22;3533;51.246;6.850;2023-04-29T15:15:46;18.40;46.90
6986;DHT22;3533;51.246;6.850;2023-04-29T15:18:12;18.40;46.90
6986;DHT22;3533;51.246;6.850;2023-04-29T15:20:37;18.40;46.90
6986;DHT22;3533;51.246;6.850;2023-04-29T15:23:03;18.40;46.90
6986;DHT22;3533;51.246;6.850;2023-04-29T15:25:30;18.40;46.90
6986;DHT22;3533;51.246;6.850;2023-04-29T15:27:57;18.40;46.90
6986;DHT22;3533;51.246;6.850;2023-04-29T15:30:24;18.40;46.90
6986;DHT22;3533;51.246;6.850;2023-04-29T15:32:50;18.40;46.90
6986;DHT22;3533;51.246;6.850;2023-04-29T15:35:16;18.40;46.90
6986;DHT22;3533;51.246;6.850;2023-04-29T15:37:42;18.40;46.90
6986;DHT22;3533;51.246;6.850;2023-04-29T15:40:08;18.40;46.90
6986;DHT22;3533;51.246;6.850;2023-04-29T15:42:33;18.40;46.90
6986;DHT22;3533;51.246;6.850;2023-04-29T15:44:59;18.40;46.90
6986;DHT22;3533;51.246;6.850;2023-04-29T15:47:24;18.40;46.90
6986;DHT22;3533;51.246;6.850;2023-04-29T15:49:50;18.40;46.90
6986;DHT22;3533;51.246;6.850;2023-04-29T15:52:16;18.40;46.90
6986;DHT22;3533;51.246;6.850;2023-04-29T15:54:41;18.40;46.90
6986;DHT22;3533;51.246;6.850;2023-04-29T15:57:07;18.40;46.90
6986;DHT22;3533;51.246;6.850;2023-04-29T15:59:33;18.40;46.90
6986;DHT22;3533;51.246;6.850;2023-04-29T16:01:58;18.40;46.90
6986;DHT22;3533;51.246;6.850;2023-04-29T16:04:24;18.40;46.90
6986;DHT22;3533;51.246;6.850;2023-04-29T16:06:51;18.50;46.90
6986;DHT22;3533;51.246;6.850;2023-04-29T16:09:17;18.40;46.90
6986;DHT22;3533;51.246;6.850;2023-04-29T16:11:42;18.50;47.00
6986;DHT22;3533;51.246;6.850;2023-04-29T16:14:08;18.50;47.00
6986;DHT22;3533;51.246;6.850;2023-04-29T16:16:33;18.50;46.90
6986;DHT22;3533;51.246;6.850;2023-04-29T16:18:59;18.50;46.90
6986;DHT22;3533;51.246;6.850;2023-04-29T16:21:24;18.50;46.80
6986;DHT22;3533;51.246;6.850;2023-04-29T16:23:50;18.50;46.90
6986;DHT22;3533;51.246;6.850;2023-04-29T16:26:16;18.50;47.00
6986;DHT22;3533;51.246;6.850;2023-04-29T16:28:42;18.50;46.90
6986;DHT22;3533;51.246;6.850;2023-04-29T16:31:08;18.50;46.90
6986;DHT22;3533;51.246;6.850;2023-04-29T16:33:37;18.50;46.90
6986;DHT22;3533;51.246;6.850;2023-04-29T16:36:02;18.50;46.80
6986;DHT22;3533;51.246;6.850;2023-04-29T16:38:29;18.50;46.90
6986;DHT22;3533;51.246;6.850;2023-04-29T16:40:55;18.50;46.80
6986;DHT22;3533;51.246;6.850;2023-04-29T16:43:20;18.50;46.90
6986;DHT22;3533;51.246;6.850;2023-04-29T16:45:46;18.50;46.80
6986;DHT22;3533;51.246;6.850;2023-04-29T16:48:11;18.50;46.80
6986;DHT22;3533;51.246;6.850;2023-04-29T16:50:37;18.50;46.80
6986;DHT22;3533;51.246;6.850;2023-04-29T16:53:03;18.50;46.80
6986;DHT22;3533;51.246;6.850;2023-04-29T16:55:29;18.50;46.80
6986;DHT22;3533;51.246;6.850;2023-04-29T16:57:55;18.50;46.80
6986;DHT22;3533;51.246;6.850;2023-04-29T17:00:21;18.50;46.80
6986;DHT22;3533;51.246;6.850;2023-04-29T17:02:47;18.50;46.80
6986;DHT22;3533;51.246;6.850;2023-04-29T17:05:12;18.50;46.80
6986;DHT22;3533;51.246;6.850;2023-04-29T17:07:38;18.50;46.80
6986;DHT22;3533;51.246;6.850;2023-04-29T17:10:05;18.50;46.80
6986;DHT22;3533;51.246;6.850;2023-04-29T17:12:31;18.50;46.80
6986;DHT22;3533;51.246;6.850;2023-04-29T17:14:57;18.50;46.80
6986;DHT22;3533;51.246;6.850;2023-04-29T17:17:23;18.50;46.80
6986;DHT22;3533;51.246;6.850;2023-04-29T17:19:48;18.50;46.80
6986;DHT22;3533;51.246;6.850;2023-04-29T17:22:16;18.50;46.80
6986;DHT22;3533;51.246;6.850;2023-04-29T17:24:42;18.50;46.80
6986;DHT22;3533;51.246;6.850;2023-04-29T17:27:10;18.50;46.80